createdAt,value
2022-08-08T00:01:08.647Z,1.30
2022-08-08T00:03:49.076Z,1.58
2022-08-08T00:06:34.873Z,1.80
2022-08-08T00:09:16.066Z,1.65
2022-08-08T00:12:07.142Z,1.33
2022-08-08T00:14:58.940Z,1.48
2022-08-08T00:17:58.380Z,1.63
2022-08-08T00:20:37.328Z,1.55
2022-08-08T00:23:11.822Z,1.88
2022-08-08T00:25:50.875Z,1.88
2022-08-08T00:28:35.530Z,1.50
2022-08-08T00:32:21.231Z,1.50
2022-08-08T00:34:32.099Z,1.70
2022-08-08T00:37:16.625Z,1.70
2022-08-08T00:41:10.276Z,1.92
2022-08-08T00:43:46.141Z,1.70
2022-08-08T00:46:57.235Z,1.67
2022-08-08T00:49:59.082Z,1.85
2022-08-08T00:52:51.332Z,1.92
2022-08-08T00:55:54.601Z,1.60
2022-08-08T00:58:56.186Z,1.73
2022-08-08T01:01:38.027Z,1.45
2022-08-08T01:04:52.304Z,1.50
2022-08-08T01:08:05.313Z,1.90
2022-08-08T01:11:12.288Z,1.80
2022-08-08T01:14:17.254Z,2.00
2022-08-08T01:17:51.640Z,1.80
2022-08-08T01:20:44.063Z,1.80
2022-08-08T01:24:05.255Z,1.85
2022-08-08T01:27:03.383Z,1.98
2022-08-08T01:30:08.190Z,1.90
2022-08-08T01:33:33.832Z,2.10
2022-08-08T01:37:02.079Z,2.10
2022-08-08T01:40:00.916Z,2.05
2022-08-08T01:42:40.112Z,2.20
2022-08-08T01:45:33.907Z,2.10
2022-08-08T01:48:30.624Z,2.20
2022-08-08T01:52:04.679Z,1.88
2022-08-08T01:55:26.006Z,2.13
2022-08-08T01:58:10.693Z,2.00
2022-08-08T02:00:24.124Z,2.08
2022-08-08T02:03:56.060Z,2.00
2022-08-08T02:06:32.526Z,2.00
2022-08-08T02:09:17.867Z,2.17
2022-08-08T02:11:59.187Z,1.92
2022-08-08T02:14:50.037Z,2.22
2022-08-08T02:17:42.718Z,2.10
2022-08-08T02:21:01.970Z,2.20
2022-08-08T02:23:23.125Z,2.25
2022-08-08T02:26:08.230Z,2.13
2022-08-08T02:29:18.615Z,2.13
2022-08-08T02:32:08.489Z,2.25
2022-08-08T02:35:10.963Z,2.13
2022-08-08T02:38:34.286Z,2.35
2022-08-08T02:42:04.026Z,2.38
2022-08-08T02:45:18.229Z,2.50
2022-08-08T02:48:26.217Z,2.50
2022-08-08T02:51:30.473Z,2.53
2022-08-08T02:54:50.218Z,2.35
2022-08-08T02:58:03.115Z,2.58
2022-08-08T03:00:55.803Z,2.83
2022-08-08T03:05:03.007Z,2.85
2022-08-08T03:07:41.757Z,2.88
2022-08-08T03:10:44.730Z,2.53
2022-08-08T03:15:59.703Z,3.10
2022-08-08T03:16:55.486Z,2.80
2022-08-08T03:19:51.379Z,3.20
2022-08-08T03:22:38.287Z,3.05
2022-08-08T03:25:18.822Z,2.63
2022-08-08T03:27:58.491Z,2.67
2022-08-08T03:30:32.045Z,2.80
2022-08-08T03:33:58.561Z,3.03
2022-08-08T03:36:16.008Z,2.97
2022-08-08T03:38:54.430Z,2.80
2022-08-08T03:42:13.060Z,3.00
2022-08-08T03:44:25.267Z,3.10
2022-08-08T03:46:55.901Z,3.17
2022-08-08T03:49:57.357Z,3.45
2022-08-08T03:52:17.871Z,3.17
2022-08-08T03:55:01.701Z,3.38
2022-08-08T03:58:35.798Z,3.30
2022-08-08T04:00:26.535Z,3.33
2022-08-08T04:03:11.795Z,3.13
2022-08-08T04:05:47.937Z,3.20
2022-08-08T04:08:32.612Z,3.25
2022-08-08T04:11:11.506Z,3.40
2022-08-08T04:14:03.421Z,3.28
2022-08-08T04:16:41.438Z,3.55
2022-08-08T04:19:23.251Z,3.63
2022-08-08T04:21:54.667Z,3.78
2022-08-08T04:24:29.536Z,3.38
2022-08-08T04:27:02.143Z,3.80
2022-08-08T04:29:37.038Z,3.40
2022-08-08T04:32:10.826Z,3.63
2022-08-08T04:34:49.374Z,3.60
2022-08-08T04:37:32.307Z,3.67
2022-08-08T04:40:12.312Z,3.70
2022-08-08T04:42:57.106Z,2.85
2022-08-08T04:45:35.002Z,4.35
2022-08-08T04:48:05.495Z,3.75
2022-08-08T04:50:40.339Z,4.03
2022-08-08T04:53:52.136Z,3.88
2022-08-08T04:56:09.760Z,3.70
2022-08-08T04:58:40.367Z,3.67
2022-08-08T05:01:11.701Z,3.92
2022-08-08T05:04:09.153Z,4.28
2022-08-08T05:06:39.516Z,3.85
2022-08-08T05:09:11.079Z,3.92
2022-08-08T05:11:47.536Z,4.13
2022-08-08T05:14:20.513Z,4.07
2022-08-08T05:17:01.129Z,4.10
2022-08-08T05:20:12.686Z,3.70
2022-08-08T05:22:30.875Z,3.95
2022-08-08T05:25:01.259Z,4.47
2022-08-08T05:27:33.038Z,3.80
2022-08-08T05:30:04.072Z,4.50
2022-08-08T05:32:42.318Z,4.15
2022-08-08T05:35:15.266Z,4.15
2022-08-08T05:37:54.519Z,4.35
2022-08-08T05:40:48.821Z,4.10
2022-08-08T05:43:40.205Z,4.75
2022-08-08T05:46:17.325Z,4.80
2022-08-08T05:48:52.043Z,4.68
2022-08-08T05:51:22.888Z,4.78
2022-08-08T05:54:28.829Z,5.00
2022-08-08T05:56:48.475Z,5.22
2022-08-08T05:59:59.937Z,4.75
2022-08-08T06:02:43.549Z,4.55
2022-08-08T06:05:34.644Z,4.68
2022-08-08T06:08:32.853Z,4.95
2022-08-08T06:11:04.852Z,4.38
2022-08-08T06:13:36.407Z,4.90
2022-08-08T06:16:18.870Z,4.45
2022-08-08T06:19:16.333Z,5.03
2022-08-08T06:21:56.849Z,5.10
2022-08-08T06:24:47.099Z,5.10
2022-08-08T06:27:19.958Z,4.70
2022-08-08T06:30:02.117Z,4.95
2022-08-08T06:32:47.733Z,4.70
2022-08-08T06:36:04.549Z,4.63
2022-08-08T06:38:17.182Z,5.57
2022-08-08T06:40:54.163Z,5.15
2022-08-08T06:43:34.220Z,4.90
2022-08-08T06:46:16.376Z,4.55
2022-08-08T06:48:50.847Z,4.45
2022-08-08T06:51:23.381Z,4.85
2022-08-08T06:53:57.724Z,4.80
2022-08-08T06:56:37.422Z,4.63
2022-08-08T06:59:09.860Z,4.32
2022-08-08T07:02:18.235Z,4.95
2022-08-08T07:04:51.218Z,4.65
2022-08-08T07:07:36.968Z,4.80
2022-08-08T07:10:10.753Z,4.47
2022-08-08T07:12:48.027Z,5.05
2022-08-08T07:16:04.809Z,4.80
2022-08-08T07:18:57.387Z,4.13
2022-08-08T07:21:37.635Z,4.00
2022-08-08T07:24:10.428Z,4.97
2022-08-08T07:26:54.840Z,5.07
2022-08-08T07:30:00.151Z,4.25
2022-08-08T07:32:17.352Z,4.45
2022-08-08T07:35:00.438Z,4.40
2022-08-08T07:37:55.913Z,3.78
2022-08-08T07:40:34.429Z,4.70
2022-08-08T07:43:12.239Z,3.70
2022-08-08T07:45:51.596Z,4.07
2022-08-08T07:48:38.404Z,3.70
2022-08-08T07:51:23.436Z,3.95
2022-08-08T07:54:06.304Z,4.32
2022-08-08T07:56:50.066Z,4.28
2022-08-08T07:59:23.784Z,3.88
2022-08-08T08:02:34.951Z,3.90
2022-08-08T08:04:57.307Z,4.05
2022-08-08T08:07:38.669Z,3.85
2022-08-08T08:10:12.499Z,4.25
2022-08-08T08:12:50.376Z,3.35
2022-08-08T08:15:31.806Z,3.22
2022-08-08T08:18:06.296Z,3.13
2022-08-08T08:20:46.215Z,2.58
2022-08-08T08:23:15.739Z,3.22
2022-08-08T08:25:53.008Z,3.20
2022-08-08T08:28:27.678Z,2.78
2022-08-08T08:31:04.884Z,2.70
2022-08-08T08:33:36.827Z,3.50
2022-08-08T08:36:19.557Z,3.22
2022-08-08T08:38:51.431Z,2.90
2022-08-08T08:41:31.037Z,2.97
2022-08-08T08:44:13.734Z,2.90
2022-08-08T08:46:50.811Z,3.03
2022-08-08T08:49:22.086Z,3.08
2022-08-08T08:52:00.454Z,2.65
2022-08-08T08:54:35.132Z,2.67
2022-08-08T08:57:15.974Z,2.80
2022-08-08T08:59:58.915Z,2.55
2022-08-08T09:02:33.009Z,2.22
2022-08-08T09:05:07.834Z,2.90
2022-08-08T09:07:52.226Z,2.70
2022-08-08T09:10:39.511Z,2.40
2022-08-08T09:13:12.684Z,2.13
2022-08-08T09:15:43.189Z,2.50
2022-08-08T09:18:18.132Z,2.95
2022-08-08T09:21:58.129Z,3.17
2022-08-08T09:23:40.714Z,2.92
2022-08-08T09:26:25.636Z,3.10
2022-08-08T09:29:07.925Z,3.15
2022-08-08T09:31:56.013Z,2.50
2022-08-08T09:34:34.220Z,3.03
2022-08-08T09:37:28.811Z,2.45
2022-08-08T09:40:10.517Z,2.40
2022-08-08T09:42:43.700Z,2.03
2022-08-08T09:45:54.048Z,1.90
2022-08-08T09:48:16.303Z,1.98
2022-08-08T09:50:55.967Z,1.70
2022-08-08T09:53:59.848Z,1.70
2022-08-08T09:56:25.307Z,1.88
2022-08-08T09:59:20.116Z,2.08
2022-08-08T10:01:59.119Z,1.77
2022-08-08T10:04:41.325Z,2.45
2022-08-08T10:07:18.380Z,1.85
2022-08-08T10:10:00.990Z,1.77
2022-08-08T10:12:38.215Z,2.10
2022-08-08T10:15:24.341Z,2.08
2022-08-08T10:18:05.635Z,1.90
2022-08-08T10:20:51.150Z,1.77
2022-08-08T10:23:55.927Z,1.77
2022-08-08T10:26:56.998Z,1.85
2022-08-08T10:29:44.103Z,1.60
2022-08-08T10:32:48.433Z,1.52
2022-08-08T10:36:07.700Z,1.85
2022-08-08T10:38:16.517Z,1.63
2022-08-08T10:40:53.180Z,1.83
2022-08-08T10:43:23.704Z,1.67
2022-08-08T10:45:55.093Z,1.65
2022-08-08T10:48:37.352Z,1.40
2022-08-08T10:51:24.299Z,1.65
2022-08-08T10:53:59.784Z,1.73
2022-08-08T10:56:36.208Z,1.75
2022-08-08T10:59:09.495Z,1.30
2022-08-08T11:01:40.109Z,1.20
2022-08-08T11:04:10.894Z,1.30
2022-08-08T11:06:41.804Z,1.63
2022-08-08T11:09:21.728Z,1.13
2022-08-08T11:12:05.379Z,1.30
2022-08-08T11:14:57.574Z,1.20
2022-08-08T11:17:59.935Z,1.30
2022-08-08T11:20:27.243Z,1.50
2022-08-08T11:22:59.096Z,1.40
2022-08-08T11:25:53.316Z,1.30
2022-08-08T11:28:29.328Z,1.42
2022-08-08T11:31:04.097Z,2.00
2022-08-08T11:33:51.403Z,1.80
2022-08-08T11:36:29.119Z,1.77
2022-08-08T11:38:59.110Z,1.75
2022-08-08T11:41:33.507Z,1.83
2022-08-08T11:44:05.674Z,1.90
2022-08-08T11:46:35.140Z,1.90
2022-08-08T11:49:09.643Z,1.70
2022-08-08T11:51:49.775Z,1.77
2022-08-08T11:54:33.939Z,1.70
2022-08-08T11:57:13.837Z,2.00
2022-08-08T12:00:01.037Z,1.63
2022-08-08T12:02:48.924Z,1.70
2022-08-08T12:05:31.722Z,1.80
2022-08-08T12:08:04.186Z,1.48
2022-08-08T12:10:34.079Z,2.10
2022-08-08T12:13:09.427Z,1.70
2022-08-08T12:15:48.158Z,1.70
2022-08-08T12:18:24.262Z,1.77
2022-08-08T12:20:56.636Z,1.90
2022-08-08T12:23:43.752Z,1.90
2022-08-08T12:26:27.779Z,1.70
2022-08-08T12:29:25.866Z,1.45
2022-08-08T12:32:17.048Z,1.58
2022-08-08T12:35:13.732Z,1.48
2022-08-08T12:38:02.271Z,1.63
2022-08-08T12:40:44.446Z,1.40
2022-08-08T12:43:32.736Z,1.50
2022-08-08T12:46:02.864Z,1.60
2022-08-08T12:48:36.428Z,1.70
2022-08-08T12:51:11.655Z,1.40
2022-08-08T12:53:58.482Z,1.25
2022-08-08T12:56:35.558Z,1.67
2022-08-08T12:59:16.946Z,1.52
2022-08-08T13:01:53.002Z,1.50
2022-08-08T13:04:25.834Z,1.95
2022-08-08T13:07:01.233Z,1.65
2022-08-08T13:10:00.800Z,1.50
2022-08-08T13:12:30.109Z,2.17
2022-08-08T13:15:02.383Z,1.60
2022-08-08T13:18:08.129Z,1.88
2022-08-08T13:20:27.509Z,1.70
2022-08-08T13:25:59.214Z,1.60
2022-08-08T13:28:31.847Z,1.80
2022-08-08T13:31:03.940Z,1.70
2022-08-08T13:33:42.328Z,1.92
2022-08-08T13:36:13.966Z,2.00
2022-08-08T13:38:43.187Z,1.55
2022-08-08T13:41:16.732Z,1.75
2022-08-08T13:43:47.685Z,1.88
2022-08-08T13:46:26.874Z,1.88
2022-08-08T13:49:11.344Z,2.10
2022-08-08T13:52:00.857Z,1.90
2022-08-08T13:54:32.309Z,2.20
2022-08-08T13:57:08.922Z,2.35
2022-08-08T13:59:47.854Z,2.00
2022-08-08T14:02:20.712Z,1.75
2022-08-08T14:04:57.475Z,2.13
2022-08-08T14:07:38.014Z,2.13
2022-08-08T14:10:12.347Z,1.92
2022-08-08T14:12:47.708Z,1.98
2022-08-08T14:15:31.509Z,2.35
2022-08-08T14:18:36.459Z,2.00
2022-08-08T14:21:03.798Z,1.92
2022-08-08T14:24:07.994Z,2.10
2022-08-08T14:26:41.549Z,2.40
2022-08-08T14:29:28.226Z,2.33
2022-08-08T14:32:09.099Z,3.15
2022-08-08T14:34:42.431Z,2.15
2022-08-08T14:37:12.660Z,2.33
2022-08-08T14:39:50.067Z,2.15
2022-08-08T14:42:31.069Z,2.40
2022-08-08T14:45:02.825Z,2.05
2022-08-08T14:47:36.360Z,2.00
2022-08-08T14:50:15.222Z,12.63
2022-08-08T14:52:57.051Z,2.33
2022-08-08T14:55:35.641Z,1.95
2022-08-08T14:58:16.899Z,2.70
2022-08-08T15:00:49.948Z,3.35
2022-08-08T15:03:19.238Z,2.97
2022-08-08T15:05:53.319Z,2.40
2022-08-08T15:08:33.626Z,1.98
2022-08-08T15:11:11.089Z,2.22
2022-08-08T15:14:01.345Z,4.00
2022-08-08T15:16:34.436Z,2.10
2022-08-08T15:19:05.376Z,2.33
2022-08-08T15:21:37.909Z,2.20
2022-08-08T15:24:14.196Z,2.20
2022-08-08T15:26:53.171Z,2.05
2022-08-08T15:29:24.406Z,2.22
2022-08-08T15:32:19.991Z,2.22
2022-08-08T15:34:44.272Z,2.13
2022-08-08T15:37:14.108Z,2.83
2022-08-08T15:39:43.030Z,2.25
2022-08-08T15:42:31.725Z,2.65
2022-08-08T15:45:03.665Z,2.38
2022-08-08T15:47:32.388Z,2.72
2022-08-08T15:50:01.840Z,2.60
2022-08-08T15:52:33.312Z,2.22
2022-08-08T15:55:03.787Z,2.30
2022-08-08T15:57:35.381Z,2.45
2022-08-08T16:00:27.303Z,2.30
2022-08-08T16:02:59.295Z,2.15
2022-08-08T16:05:35.227Z,2.30
2022-08-08T16:08:10.729Z,2.15
2022-08-08T16:13:03.639Z,2.28
2022-08-08T16:13:46.702Z,2.40
2022-08-08T16:16:17.465Z,2.42
2022-08-08T16:18:56.286Z,2.30
2022-08-08T16:21:29.409Z,2.50
2022-08-08T16:23:59.653Z,2.35
2022-08-08T16:26:33.899Z,2.13
2022-08-08T16:29:08.082Z,2.22
2022-08-08T16:31:48.402Z,2.40
2022-08-08T16:34:20.491Z,2.60
2022-08-08T16:36:50.890Z,2.28
2022-08-08T16:39:59.614Z,2.38
2022-08-08T16:42:17.681Z,2.08
2022-08-08T16:44:54.515Z,2.20
2022-08-08T16:47:40.053Z,2.30
2022-08-08T16:50:15.082Z,2.30
2022-08-08T16:55:03.014Z,2.50
2022-08-08T16:55:55.472Z,2.25
2022-08-08T16:58:25.722Z,2.55
2022-08-08T17:00:58.184Z,2.42
2022-08-08T17:03:58.646Z,2.30
2022-08-08T17:06:36.764Z,2.83
2022-08-08T17:09:07.661Z,2.25
2022-08-08T17:11:48.607Z,2.63
2022-08-08T17:14:33.206Z,2.55
2022-08-08T17:17:22.945Z,2.60
2022-08-08T17:19:58.143Z,2.58
2022-08-08T17:22:38.849Z,2.55
2022-08-08T17:25:11.805Z,2.97
2022-08-08T17:27:46.094Z,2.30
2022-08-08T17:30:27.400Z,2.35
2022-08-08T17:34:48.453Z,2.78
2022-08-08T17:35:55.267Z,2.70
2022-08-08T17:38:37.798Z,3.05
2022-08-08T17:41:07.807Z,2.88
2022-08-08T17:44:00.480Z,2.45
2022-08-08T17:46:36.385Z,2.72
2022-08-08T17:49:08.054Z,2.60
2022-08-08T17:51:39.867Z,2.63
2022-08-08T17:54:22.475Z,2.70
2022-08-08T17:56:55.301Z,2.70
2022-08-08T17:59:30.484Z,2.55
2022-08-08T18:02:06.976Z,2.80
2022-08-08T18:04:50.484Z,2.30
2022-08-08T18:08:01.928Z,2.55
2022-08-08T18:10:08.887Z,2.63
2022-08-08T18:12:37.818Z,2.45
2022-08-08T18:15:09.689Z,2.53
2022-08-08T18:18:10.026Z,2.25
2022-08-08T18:20:36.499Z,2.65
2022-08-08T18:23:15.037Z,2.65
2022-08-08T18:25:44.768Z,2.90
2022-08-08T18:28:14.376Z,2.80
2022-08-08T18:30:43.799Z,2.70
2022-08-08T18:33:36.877Z,2.53
2022-08-08T18:36:10.245Z,2.35
2022-08-08T18:38:49.028Z,2.80
2022-08-08T18:41:18.064Z,3.40
2022-08-08T18:43:47.874Z,3.05
2022-08-08T18:46:56.074Z,2.65
2022-08-08T18:49:07.039Z,2.78
2022-08-08T18:51:53.230Z,2.40
2022-08-08T18:54:29.991Z,2.83
2022-08-08T18:57:00.033Z,2.88
2022-08-08T18:59:34.562Z,3.17
2022-08-08T19:02:26.886Z,2.88
2022-08-08T19:04:56.492Z,2.58
2022-08-08T19:07:29.634Z,2.90
2022-08-08T19:10:15.875Z,2.97
2022-08-08T19:12:50.109Z,2.78
2022-08-08T19:15:23.931Z,2.80
2022-08-08T19:18:30.670Z,3.15
2022-08-08T19:20:46.663Z,2.97
2022-08-08T19:23:17.315Z,2.60
2022-08-08T19:26:01.848Z,2.50
2022-08-08T19:28:36.533Z,2.50
2022-08-08T19:31:07.403Z,2.95
2022-08-08T19:33:51.849Z,3.00
2022-08-08T19:36:28.431Z,2.70
2022-08-08T19:38:58.850Z,2.67
2022-08-08T19:41:29.490Z,2.90
2022-08-08T19:44:03.122Z,2.55
2022-08-08T19:46:33.802Z,2.50
2022-08-08T19:49:03.235Z,2.60
2022-08-08T19:51:34.124Z,2.88
2022-08-08T19:54:05.706Z,2.50
2022-08-08T19:56:40.876Z,2.42
2022-08-08T19:59:12.387Z,3.00
2022-08-08T20:01:50.178Z,3.08
2022-08-08T20:04:30.894Z,2.58
2022-08-08T20:07:05.182Z,2.80
2022-08-08T20:09:55.888Z,2.90
2022-08-08T20:12:32.694Z,2.88
2022-08-08T20:15:14.819Z,2.70
2022-08-08T20:17:48.441Z,2.55
2022-08-08T20:20:20.486Z,2.72
2022-08-08T20:22:53.879Z,2.67
2022-08-08T20:25:29.645Z,2.88
2022-08-08T20:28:05.700Z,2.70
2022-08-08T20:30:56.089Z,2.80
2022-08-08T20:35:57.150Z,2.85
2022-08-08T20:38:32.658Z,2.88
2022-08-08T20:41:05.562Z,2.60
2022-08-08T20:43:43.022Z,3.30
2022-08-08T20:46:13.319Z,3.60
2022-08-08T20:48:42.506Z,2.80
2022-08-08T20:51:14.284Z,3.00
2022-08-08T20:53:59.755Z,2.90
2022-08-08T20:56:35.765Z,3.10
2022-08-08T20:59:09.223Z,2.80
2022-08-08T21:02:05.426Z,3.15
2022-08-08T21:04:27.956Z,3.00
2022-08-08T21:06:57.386Z,3.22
2022-08-08T21:09:31.814Z,3.10
2022-08-08T21:12:17.374Z,3.40
2022-08-08T21:14:53.907Z,2.90
2022-08-08T21:17:23.515Z,2.80
2022-08-08T21:19:52.571Z,2.88
2022-08-08T21:22:28.842Z,3.05
2022-08-08T21:24:58.464Z,3.30
2022-08-08T21:28:06.614Z,3.22
2022-08-08T21:30:21.684Z,2.85
2022-08-08T21:32:53.558Z,2.75
2022-08-08T21:36:13.579Z,3.13
2022-08-08T21:38:18.075Z,3.28
2022-08-08T21:40:55.733Z,2.90
2022-08-08T21:43:33.459Z,2.90
2022-08-08T21:48:06.099Z,3.38
2022-08-08T21:48:55.579Z,3.08
2022-08-08T21:54:27.176Z,3.25
2022-08-08T21:54:53.548Z,2.90
2022-08-08T21:57:08.231Z,3.22
2022-08-08T21:59:43.858Z,3.10
2022-08-08T22:02:28.999Z,3.58
2022-08-08T22:04:59.445Z,3.13
2022-08-08T22:07:40.344Z,2.80
2022-08-08T22:10:28.709Z,3.28
2022-08-08T22:13:17.482Z,3.10
2022-08-08T22:15:58.668Z,3.28
2022-08-08T22:18:31.790Z,3.00
2022-08-08T22:21:14.602Z,2.95
2022-08-08T22:23:51.171Z,3.00
2022-08-08T22:26:29.769Z,3.13
2022-08-08T22:29:04.045Z,3.17
2022-08-08T22:31:36.270Z,3.47
2022-08-08T22:34:12.022Z,2.78
2022-08-08T22:36:44.062Z,3.20
2022-08-08T22:39:19.081Z,3.38
2022-08-08T22:41:49.320Z,3.20
2022-08-08T22:44:18.167Z,3.50
2022-08-08T22:46:48.513Z,2.90
2022-08-08T22:49:20.522Z,3.00
2022-08-08T22:51:49.312Z,2.63
2022-08-08T22:54:33.247Z,3.28
2022-08-08T22:57:08.708Z,2.95
2022-08-08T22:59:52.937Z,2.85
2022-08-08T23:02:30.222Z,3.00
2022-08-08T23:05:02.176Z,3.38
2022-08-08T23:07:50.981Z,3.40
2022-08-08T23:10:25.126Z,3.10
2022-08-08T23:12:54.719Z,3.25
2022-08-08T23:16:37.894Z,3.00
2022-08-08T23:18:14.967Z,3.10
2022-08-08T23:20:44.947Z,3.33
2022-08-08T23:23:23.689Z,3.25
2022-08-08T23:25:52.937Z,3.38
2022-08-08T23:28:25.402Z,3.28
2022-08-08T23:30:54.696Z,3.72
2022-08-08T23:34:18.416Z,3.55
2022-08-08T23:36:15.608Z,3.75
2022-08-08T23:38:55.296Z,3.28
2022-08-08T23:41:29.089Z,3.97
2022-08-08T23:43:58.437Z,3.30
2022-08-08T23:49:07.123Z,3.50
2022-08-08T23:49:23.206Z,3.50
2022-08-08T23:52:04.996Z,3.70
2022-08-08T23:54:41.695Z,3.40
2022-08-08T23:57:27.736Z,3.70
